Time;durP1;ratioP1;P1;durP2;ratioP2;P2;SDS_P1;SDS_P2;PMS_P1;PMS_P2;Temp;Humidity;BMP_temperature;BMP_pressure;BME280_temperature;BME280_humidity;BME280_pressure;Samples;Min_cycle;Max_cycle;Signal;HPM_P1;HPM_P2
2022/04/18 00:02:03;;;;;;;0.85;0.70;;;;;;;4.31;100.00;101880.25;5045038;28;20049;-81
2022/04/18 00:04:36;;;;;;;0.52;0.52;;;;;;;4.28;100.00;101859.13;5037872;28;20497;-80
2022/04/18 00:07:10;;;;;;;0.60;0.60;;;;;;;4.31;100.00;101864.09;5031979;28;20089;-81
2022/04/18 00:09:43;;;;;;;0.80;0.70;;;;;;;4.23;100.00;101865.13;5047454;28;20480;-81
2022/04/18 00:12:17;;;;;;;1.02;0.70;;;;;;;4.21;100.00;101858.28;5037177;28;20045;-81
2022/04/18 00:14:50;;;;;;;0.60;0.60;;;;;;;4.18;100.00;101856.81;5047790;28;20056;-81
2022/04/18 00:17:23;;;;;;;0.88;0.63;;;;;;;4.18;100.00;101856.81;5049520;28;20413;-81
2022/04/18 00:19:56;;;;;;;0.80;0.80;;;;;;;4.16;100.00;101858.09;5046811;28;20046;-80
2022/04/18 00:22:24;;;;;;;0.80;0.63;;;;;;;4.11;100.00;101856.00;5061290;28;20052;-81
2022/04/18 00:24:58;;;;;;;0.73;0.70;;;;;;;4.12;100.00;101859.53;5053548;28;20040;-81
2022/04/18 00:27:32;;;;;;;0.55;0.55;;;;;;;4.12;100.00;101859.53;5038853;28;20048;-80
2022/04/18 00:30:06;;;;;;;0.60;0.60;;;;;;;4.05;100.00;101857.66;5044962;28;20041;-80
2022/04/18 00:32:39;;;;;;;0.60;0.60;;;;;;;4.07;100.00;101855.59;5034813;28;20478;-80
2022/04/18 00:35:08;;;;;;;0.65;0.65;;;;;;;4.06;100.00;101850.41;5046312;28;20045;-80
2022/04/18 00:37:41;;;;;;;0.60;0.60;;;;;;;4.03;100.00;101854.38;5030857;28;20502;-81
2022/04/18 00:40:15;;;;;;;0.70;0.70;;;;;;;4.03;100.00;101848.13;5042119;28;20057;-80
2022/04/18 00:42:50;;;;;;;0.88;0.70;;;;;;;4.03;100.00;101850.81;5046839;28;20051;-80
2022/04/18 00:45:23;;;;;;;0.77;0.70;;;;;;;4.03;100.00;101843.59;5064320;28;20776;-81
2022/04/18 00:47:56;;;;;;;0.70;0.70;;;;;;;4.01;100.00;101837.56;5045313;28;20060;-81
2022/04/18 00:50:32;;;;;;;0.70;0.70;;;;;;;4.00;100.00;101838.59;5049986;28;20052;-81
2022/04/18 00:53:07;;;;;;;0.75;0.63;;;;;;;3.92;100.00;101844.19;5046047;28;20053;-80
2022/04/18 00:55:36;;;;;;;0.60;0.60;;;;;;;3.87;100.00;101844.00;5047616;28;20048;-80
2022/04/18 00:58:11;;;;;;;0.95;0.70;;;;;;;3.80;100.00;101841.28;5059130;28;20406;-80
2022/04/18 01:00:39;;;;;;;0.70;0.70;;;;;;;3.79;100.00;101834.25;5043541;28;20057;-81
2022/04/18 01:03:12;;;;;;;0.60;0.60;;;;;;;3.78;100.00;101840.66;5072622;28;20488;-80
2022/04/18 01:05:46;;;;;;;0.80;0.80;;;;;;;3.75;100.00;101841.91;5046898;28;20124;-80
2022/04/18 01:08:19;;;;;;;1.80;0.70;;;;;;;3.72;100.00;101834.22;5050583;28;20060;-81
2022/04/18 01:10:54;;;;;;;0.73;0.70;;;;;;;3.73;100.00;101827.81;5041880;28;20049;-80
2022/04/18 01:13:29;;;;;;;0.70;0.70;;;;;;;3.64;100.00;101820.97;5054576;28;20045;-81
2022/04/18 01:16:22;;;;;;;0.93;0.77;;;;;;;3.69;100.00;101831.13;5044361;28;20069;-80
2022/04/18 01:19:11;;;;;;;0.60;0.60;;;;;;;3.62;100.00;101819.50;5056655;28;20056;-81
2022/04/18 01:21:56;;;;;;;0.60;0.60;;;;;;;3.64;100.00;101809.38;5052600;28;20045;-81
2022/04/18 01:30:34;;;;;;;0.70;0.70;;;;;;;3.58;100.00;101816.41;5067733;28;20044;-80
2022/04/18 01:33:09;;;;;;;0.80;0.70;;;;;;;3.57;100.00;101809.38;5046168;28;20405;-80
2022/04/18 01:35:46;;;;;;;0.80;0.80;;;;;;;3.55;100.00;101806.06;5045733;28;20045;-80
2022/04/18 01:38:21;;;;;;;0.80;0.80;;;;;;;3.60;100.00;101800.88;5048021;28;20292;-80
2022/04/18 01:40:54;;;;;;;0.75;0.75;;;;;;;3.52;100.00;101793.84;5052510;28;20709;-80
2022/04/18 01:43:27;;;;;;;1.08;0.90;;;;;;;3.50;100.00;101792.38;5050064;28;20051;-80
2022/04/18 01:46:00;;;;;;;1.00;0.80;;;;;;;3.58;100.00;101798.41;5046223;28;20501;-80
2022/04/18 01:48:30;;;;;;;1.25;0.80;;;;;;;3.56;100.00;101794.25;5049937;28;20441;-80
2022/04/18 01:51:04;;;;;;;0.80;0.80;;;;;;;3.53;100.00;101792.78;5047057;28;20041;-81
2022/04/18 01:53:34;;;;;;;0.70;0.70;;;;;;;3.55;100.00;101790.75;5047145;28;20063;-80
2022/04/18 01:56:08;;;;;;;0.80;0.80;;;;;;;3.56;100.00;101784.31;5050077;28;20383;-80
2022/04/18 01:58:41;;;;;;;0.70;0.70;;;;;;;3.60;100.00;101789.28;5045243;28;20041;-80
2022/04/18 02:01:15;;;;;;;1.13;0.85;;;;;;;3.62;100.00;101785.38;5040716;28;20421;-80
2022/04/18 02:03:48;;;;;;;0.90;0.80;;;;;;;3.66;100.00;101780.38;5047380;28;20049;-80
2022/04/18 02:06:21;;;;;;;0.85;0.80;;;;;;;3.60;100.00;101786.59;5045729;28;20052;-80
2022/04/18 02:08:55;;;;;;;0.80;0.80;;;;;;;3.60;100.00;101786.59;5042764;28;20059;-80
2022/04/18 02:11:26;;;;;;;0.70;0.70;;;;;;;3.59;100.00;101783.09;5047817;28;20048;-80
2022/04/18 02:13:59;;;;;;;0.70;0.70;;;;;;;3.55;100.00;101779.97;5046153;28;20071;-80
2022/04/18 02:16:33;;;;;;;0.70;0.70;;;;;;;3.57;100.00;101777.06;5042218;28;20049;-80
2022/04/18 02:19:04;;;;;;;0.98;0.98;;;;;;;3.51;100.00;101777.91;5053017;28;20485;-80
2022/04/18 02:21:37;;;;;;;0.80;0.80;;;;;;;3.46;100.00;101780.38;5046251;28;20393;-80
2022/04/18 02:24:14;;;;;;;0.80;0.80;;;;;;;3.49;100.00;101774.56;5052341;28;20064;-80
2022/04/18 02:26:47;;;;;;;0.93;0.90;;;;;;;3.31;100.00;101762.53;5043885;28;20052;-80
2022/04/18 02:29:15;;;;;;;0.82;0.77;;;;;;;3.12;100.00;101776.78;5048353;28;20057;-80
2022/04/18 02:34:39;;;;;;;0.75;0.75;;;;;;;3.00;100.00;101768.50;5057303;28;20045;-80
2022/04/18 02:37:12;;;;;;;0.73;0.70;;;;;;;3.08;100.00;101768.31;5049531;28;20048;-80
2022/04/18 02:39:42;;;;;;;0.80;0.80;;;;;;;3.08;100.00;101764.78;5036741;28;20045;-80
2022/04/18 02:42:10;;;;;;;0.80;0.80;;;;;;;3.05;100.00;101766.00;5056262;28;20045;-81
2022/04/18 02:44:45;;;;;;;0.77;0.77;;;;;;;3.04;100.00;101765.19;5041391;28;20060;-80
2022/04/18 02:47:26;;;;;;;0.90;0.90;;;;;;;3.04;100.00;101762.50;5043408;28;20048;-80
2022/04/18 02:49:59;;;;;;;0.80;0.80;;;;;;;3.08;100.00;101756.69;5051544;28;20517;-80
2022/04/18 02:52:33;;;;;;;0.95;0.90;;;;;;;3.08;100.00;101759.41;5050850;28;20053;-80
2022/04/18 02:55:03;;;;;;;0.75;0.75;;;;;;;3.12;100.00;101752.56;5045603;28;20053;-81
2022/04/18 02:57:31;;;;;;;0.90;0.90;;;;;;;3.08;100.00;101746.78;5038476;28;20048;-81
2022/04/18 03:00:05;;;;;;;0.80;0.80;;;;;;;3.06;100.00;101755.03;5045659;28;20045;-80
2022/04/18 03:02:37;;;;;;;0.82;0.82;;;;;;;3.00;100.00;101746.97;5043274;28;20052;-81
2022/04/18 03:05:12;;;;;;;1.42;1.00;;;;;;;2.99;100.00;101737.25;5044074;28;20057;-80
2022/04/18 03:07:45;;;;;;;0.95;0.90;;;;;;;2.98;100.00;101736.41;5043748;28;20049;-80
2022/04/18 03:11:02;;;;;;;0.80;0.80;;;;;;;2.99;100.00;101737.25;5046056;28;20387;-80
2022/04/18 03:13:12;;;;;;;0.80;0.80;;;;;;;2.98;100.00;101739.09;5050122;28;20060;-80
2022/04/18 03:15:45;;;;;;;0.90;0.90;;;;;;;2.97;100.00;101724.00;5034717;28;20410;-81
2022/04/18 03:18:19;;;;;;;0.85;0.80;;;;;;;2.94;100.00;101728.94;5061166;28;20433;-80
2022/04/18 03:20:47;;;;;;;0.90;0.90;;;;;;;2.95;100.00;101722.56;5045650;28;20075;-80
2022/04/18 03:23:15;;;;;;;0.80;0.80;;;;;;;2.91;100.00;101724.81;5040775;28;20057;-81
2022/04/18 03:26:11;;;;;;;0.93;0.90;;;;;;;2.80;100.00;101717.34;5050460;28;20052;-80
2022/04/18 03:28:53;;;;;;;0.90;0.90;;;;;;;2.88;100.00;101719.84;5052525;28;20045;-80
2022/04/18 03:31:26;;;;;;;0.98;0.88;;;;;;;2.82;100.00;101713.41;5052734;28;20591;-80
2022/04/18 03:34:00;;;;;;;1.00;0.98;;;;;;;2.82;100.00;101716.09;5046843;28;20048;-80
2022/04/18 03:42:18;;;;;;;0.80;0.80;;;;;;;2.76;100.00;101708.00;5045482;28;20057;-80
2022/04/18 03:44:52;;;;;;;0.90;0.90;;;;;;;2.67;100.00;101713.56;5045166;28;20056;-80
2022/04/18 03:47:26;;;;;;;0.95;0.95;;;;;;;2.65;100.00;101709.41;5039783;28;20453;-81
2022/04/18 03:49:59;;;;;;;1.30;1.20;;;;;;;2.68;100.00;101712.53;5051631;28;20048;-80
2022/04/18 03:52:36;;;;;;;;;;;;;;;2.71;100.00;101714.81;5031664;28;20045;-80
2022/04/18 03:55:06;;;;;;;0.90;0.90;;;;;;;2.70;100.00;101712.34;5047844;28;19932;-80
2022/04/18 03:57:42;;;;;;;1.00;1.00;;;;;;;2.71;100.00;101719.38;5048898;28;20501;-81
2022/04/18 04:00:17;;;;;;;0.90;0.90;;;;;;;2.45;100.00;101720.09;5039897;28;20053;-80
2022/04/18 04:02:52;;;;;;;1.10;1.00;;;;;;;2.25;100.00;101712.78;5049290;28;20041;-80
2022/04/18 04:05:33;;;;;;;1.00;1.00;;;;;;;2.28;100.00;101717.75;5043845;28;20284;-80
2022/04/18 04:08:07;;;;;;;1.20;1.10;;;;;;;2.20;100.00;101709.88;5055961;28;20060;-80
2022/04/18 04:10:41;;;;;;;1.60;1.30;;;;;;;2.27;100.00;101710.72;5047992;28;20421;-79
2022/04/18 04:13:15;;;;;;;1.10;1.00;;;;;;;2.24;100.00;101708.44;5036383;28;20433;-80
2022/04/18 04:16:01;;;;;;;1.30;0.90;;;;;;;2.11;100.00;101706.50;5042112;28;20908;-80
2022/04/18 04:18:35;;;;;;;1.10;0.80;;;;;;;2.05;100.00;101707.28;5068659;28;20413;-80
2022/04/18 04:21:10;;;;;;;0.93;0.90;;;;;;;2.03;100.00;101701.28;5062023;28;20430;-80
2022/04/18 04:23:43;;;;;;;0.80;0.80;;;;;;;2.00;100.00;101701.69;5049227;28;21150;-80
2022/04/18 04:26:32;;;;;;;0.80;0.80;;;;;;;2.06;100.00;101705.44;5047663;28;20439;-80
2022/04/18 04:29:07;;;;;;;0.90;0.80;;;;;;;2.09;100.00;101707.75;5044069;28;20431;-80
2022/04/18 04:32:04;;;;;;;0.70;0.70;;;;;;;2.19;100.00;101700.13;5046865;28;20430;-81
2022/04/18 04:34:40;;;;;;;0.80;0.80;;;;;;;2.20;100.00;101696.44;5047689;28;20729;-80
2022/04/18 04:37:28;;;;;;;0.80;0.80;;;;;;;2.26;100.00;101708.22;5060553;28;21020;-80
2022/04/18 04:40:12;;;;;;;0.70;0.70;;;;;;;2.18;100.00;101702.00;5050156;28;20430;-80
2022/04/18 04:42:41;;;;;;;0.80;0.80;;;;;;;2.21;100.00;101698.09;5045537;28;20413;-80
2022/04/18 04:45:15;;;;;;;1.10;0.80;;;;;;;2.29;100.00;101702.47;5047581;28;20422;-80
2022/04/18 04:48:02;;;;;;;1.05;0.90;;;;;;;2.32;100.00;101694.84;5052592;28;20420;-80
2022/04/18 04:50:35;;;;;;;0.82;0.80;;;;;;;2.32;100.00;101694.84;5044708;28;20948;-81
2022/04/18 04:53:09;;;;;;;0.80;0.80;;;;;;;2.33;100.00;101695.66;5045855;28;20428;-80
2022/04/18 04:55:43;;;;;;;1.40;0.80;;;;;;;2.27;100.00;101681.16;5044236;28;20425;-80
2022/04/18 04:58:17;;;;;;;0.80;0.80;;;;;;;2.70;100.00;101690.84;5047964;28;20421;-81
2022/04/18 05:01:04;;;;;;;0.70;0.70;;;;;;;3.06;100.00;101690.50;5054299;28;20423;-80
2022/04/18 05:04:06;;;;;;;0.70;0.70;;;;;;;3.22;100.00;101691.16;5051703;28;20444;-80
2022/04/18 05:06:41;;;;;;;1.60;0.80;;;;;;;4.21;100.00;101680.44;5033704;28;20427;-80
2022/04/18 05:09:16;;;;;;;1.90;0.80;;;;;;;5.16;100.00;101670.81;5057876;28;20430;-81
2022/04/18 05:11:46;;;;;;;0.77;0.77;;;;;;;5.82;100.00;101674.00;5049605;28;20428;-81
2022/04/18 05:14:19;;;;;;;0.90;0.70;;;;;;;6.19;100.00;101668.63;5047797;28;20437;-81
2022/04/18 05:16:56;;;;;;;0.82;0.70;;;;;;;7.01;100.00;101665.44;5047137;28;20421;-81
2022/04/18 05:19:34;;;;;;;0.60;0.60;;;;;;;6.14;100.00;101672.00;5050413;28;20916;-81
2022/04/18 05:22:25;;;;;;;0.77;0.70;;;;;;;5.81;100.00;101667.75;5052287;28;20414;-81
2022/04/18 05:24:58;;;;;;;0.88;0.70;;;;;;;5.69;100.00;101677.63;5049759;28;20751;-81
2022/04/18 05:27:37;;;;;;;0.77;0.70;;;;;;;5.30;100.00;101677.75;5064568;28;20791;-81
2022/04/18 05:30:27;;;;;;;0.70;0.70;;;;;;;5.11;100.00;101668.78;5041600;28;20411;-81
2022/04/18 05:32:58;;;;;;;0.90;0.60;;;;;;;4.90;100.00;101669.94;5043266;28;20417;-81
2022/04/18 05:35:34;;;;;;;0.60;0.60;;;;;;;4.96;100.00;101676.34;5045717;28;20413;-81
2022/04/18 05:38:09;;;;;;;0.85;0.70;;;;;;;4.67;100.00;101675.88;5072739;28;20755;-81
2022/04/18 05:40:44;;;;;;;1.48;0.70;;;;;;;4.55;100.00;101681.97;5042236;28;20453;-81
2022/04/18 05:43:12;;;;;;;0.90;0.70;;;;;;;4.47;100.00;101690.28;5041676;28;20411;-81
2022/04/18 05:45:48;;;;;;;0.80;0.80;;;;;;;4.45;100.00;101680.75;5050774;28;20440;-81
2022/04/18 05:48:18;;;;;;;0.60;0.60;;;;;;;4.47;100.00;101690.28;5052357;28;20424;-82
2022/04/18 05:50:50;;;;;;;0.70;0.70;;;;;;;4.61;100.00;101696.44;5045717;28;20425;-81
2022/04/18 05:53:28;;;;;;;0.63;0.63;;;;;;;5.01;100.00;101695.41;5056537;28;20431;-81
2022/04/18 05:56:04;;;;;;;0.80;0.75;;;;;;;4.88;100.00;101694.44;5053107;28;20899;-81
2022/04/18 05:58:42;;;;;;;0.90;0.80;;;;;;;4.99;100.00;101701.03;5062159;28;20431;-81
2022/04/18 06:01:25;;;;;;;0.75;0.75;;;;;;;5.07;100.00;101698.06;5044476;28;20422;-81
2022/04/18 06:04:03;;;;;;;0.70;0.70;;;;;;;5.24;100.00;101701.06;5048632;28;20419;-81
2022/04/18 06:06:37;;;;;;;0.70;0.70;;;;;;;5.31;100.00;101700.19;5044099;28;20934;-81
2022/04/18 06:09:11;;;;;;;0.80;0.70;;;;;;;5.34;100.00;101699.75;5047529;28;20843;-81
2022/04/18 06:11:39;;;;;;;0.70;0.70;;;;;;;5.33;100.00;101698.09;5052773;28;20419;-82
2022/04/18 06:14:17;;;;;;;0.60;0.60;;;;;;;5.42;100.00;101691.38;5049419;28;20944;-81
2022/04/18 06:16:48;;;;;;;0.75;0.70;;;;;;;5.65;100.00;101692.63;5051573;28;20429;-81
2022/04/18 06:19:20;;;;;;;1.30;0.80;;;;;;;5.80;100.00;101695.81;5057333;28;20419;-82
2022/04/18 06:21:53;;;;;;;0.70;0.70;;;;;;;5.83;100.00;101689.97;5051445;28;20421;-83
2022/04/18 06:24:27;;;;;;;0.90;0.80;;;;;;;5.81;100.00;101692.06;5046201;28;20415;-82
2022/04/18 06:27:05;;;;;;;0.70;0.70;;;;;;;5.88;100.00;101682.03;5041078;28;20433;-81
2022/04/18 06:29:37;;;;;;;0.70;0.70;;;;;;;6.00;100.00;101690.22;5052626;28;20440;-82
2022/04/18 06:32:08;;;;;;;0.80;0.77;;;;;;;6.09;100.00;101691.59;5044386;28;20428;-82
2022/04/18 06:34:42;;;;;;;0.68;0.68;;;;;;;6.23;100.00;101691.47;5046876;28;20425;-82
2022/04/18 06:37:24;;;;;;;0.70;0.70;;;;;;;6.27;100.00;101688.06;5066705;28;20429;-82
2022/04/18 06:40:07;;;;;;;0.63;0.63;;;;;;;6.47;100.00;101684.28;5047873;28;20951;-85
2022/04/18 06:42:44;;;;;;;0.70;0.70;;;;;;;6.66;100.00;101682.38;5048803;28;20411;-82
2022/04/18 06:45:24;;;;;;;0.80;0.70;;;;;;;6.85;100.00;101682.31;5041915;28;20799;-82
2022/04/18 06:47:57;;;;;;;0.60;0.60;;;;;;;7.05;100.00;101682.84;5041897;28;20425;-81
2022/04/18 06:50:42;;;;;;;0.60;0.60;;;;;;;7.13;100.00;101679.00;5042299;28;20440;-82
2022/04/18 06:53:35;;;;;;;0.63;0.60;;;;;;;7.21;100.00;101681.38;5049247;28;20429;-82
2022/04/18 06:59:19;;;;;;;0.60;0.60;;;;;;;7.55;100.00;101687.06;5052069;28;20445;-82
2022/04/18 07:01:53;;;;;;;0.93;0.70;;;;;;;7.67;100.00;101687.06;5042310;28;20508;-82
2022/04/18 07:04:22;;;;;;;0.63;0.60;;;;;;;7.83;100.00;101693.69;5047977;28;20440;-82
2022/04/18 07:06:51;;;;;;;0.70;0.70;;;;;;;7.93;100.00;101687.66;5044128;28;20434;-82
2022/04/18 07:09:24;;;;;;;0.98;0.60;;;;;;;7.95;100.00;101702.59;5046865;28;20419;-82
2022/04/18 07:12:20;;;;;;;0.70;0.70;;;;;;;8.11;100.00;101698.34;5043738;28;20800;-83
2022/04/18 07:14:56;;;;;;;0.70;0.70;;;;;;;8.33;100.00;101693.13;5058569;28;20777;-82
2022/04/18 07:17:30;;;;;;;0.60;0.60;;;;;;;8.38;100.00;101689.66;5067410;28;20418;-82
2022/04/18 07:20:08;;;;;;;0.75;0.75;;;;;;;8.42;100.00;101696.28;5040413;28;20442;-82
2022/04/18 07:22:39;;;;;;;0.63;0.60;;;;;;;8.50;100.00;101693.22;5057594;28;20417;-82
2022/04/18 07:25:14;;;;;;;0.73;0.70;;;;;;;8.56;100.00;101688.72;5049386;28;20409;-81
2022/04/18 07:27:59;;;;;;;0.60;0.60;;;;;;;8.70;100.00;101700.13;5038946;28;20411;-82
2022/04/18 07:30:30;;;;;;;0.70;0.70;;;;;;;8.75;100.00;101697.47;5043041;28;20425;-82
2022/04/18 07:33:03;;;;;;;0.90;0.60;;;;;;;8.82;100.00;101697.34;5041791;28;20731;-82
2022/04/18 07:35:36;;;;;;;1.05;0.75;;;;;;;8.89;100.00;101694.47;5050073;28;20424;-82
2022/04/18 07:41:10;;;;;;;0.80;0.70;;;;;;;9.22;100.00;101682.84;5035627;28;20441;-82
2022/04/18 07:43:47;;;;;;;0.80;0.73;;;;;;;9.39;100.00;101690.19;5045056;28;20784;-82
2022/04/18 07:46:21;;;;;;;0.80;0.52;;;;;;;9.33;100.00;101692.00;5039836;28;20429;-82
2022/04/18 07:48:54;;;;;;;0.77;0.70;;;;;;;9.32;100.00;101687.63;5048307;28;20433;-82
2022/04/18 07:51:35;;;;;;;0.70;0.63;;;;;;;9.62;100.00;101689.19;5038517;28;20413;-82
2022/04/18 07:54:43;;;;;;;0.60;0.60;;;;;;;9.58;100.00;101663.56;5040848;28;20802;-82
2022/04/18 07:57:16;;;;;;;0.73;0.60;;;;;;;9.61;100.00;101671.22;5041544;28;20427;-82
2022/04/18 07:59:57;;;;;;;1.50;0.70;;;;;;;9.58;100.00;101667.09;5039180;28;20417;-82
2022/04/18 08:02:41;;;;;;;0.60;0.57;;;;;;;9.83;100.00;101674.00;5052098;28;20436;-81
2022/04/18 08:05:12;;;;;;;0.60;0.60;;;;;;;9.75;100.00;101661.66;5045473;28;20897;-81
2022/04/18 08:07:58;;;;;;;0.70;0.70;;;;;;;9.80;100.00;101678.03;5041788;28;20446;-81
2022/04/18 08:10:36;;;;;;;0.70;0.70;;;;;;;9.92;100.00;101669.78;5042633;28;20429;-81
2022/04/18 08:13:12;;;;;;;0.80;0.70;;;;;;;9.94;100.00;101667.63;5055203;28;20432;-82
2022/04/18 08:16:17;;;;;;;0.60;0.60;;;;;;;9.97;97.90;101658.97;5038561;28;20913;-82
2022/04/18 08:18:50;;;;;;;1.00;0.70;;;;;;;10.15;94.86;101665.16;5061679;28;20502;-81
2022/04/18 08:21:26;;;;;;;1.20;0.80;;;;;;;9.97;98.05;101664.41;5041875;28;20916;-83
2022/04/18 08:23:59;;;;;;;0.70;0.70;;;;;;;10.19;97.32;101658.13;5039032;28;20419;-82
2022/04/18 08:26:37;;;;;;;0.80;0.77;;;;;;;10.35;100.00;101656.47;5049543;28;20436;-81
2022/04/18 08:29:28;;;;;;;0.70;0.70;;;;;;;10.28;100.00;101642.22;5040123;28;20433;-81
2022/04/18 08:32:16;;;;;;;0.63;0.60;;;;;;;10.42;93.71;101653.56;5044886;28;20429;-81
2022/04/18 08:34:44;;;;;;;0.60;0.60;;;;;;;10.50;100.00;101658.56;5046919;28;20429;-80
2022/04/18 08:37:20;;;;;;;0.80;0.70;;;;;;;10.38;76.87;101651.34;5043626;28;20430;-80
2022/04/18 08:40:23;;;;;;;0.68;0.68;;;;;;;10.57;90.58;101651.00;5038072;28;20462;-80
2022/04/18 08:42:57;;;;;;;0.68;0.68;;;;;;;10.58;99.88;101649.09;5040749;28;20429;-80
2022/04/18 08:45:33;;;;;;;0.70;0.70;;;;;;;10.60;98.16;101653.19;5042866;28;20910;-81
2022/04/18 08:53:51;;;;;;;0.70;0.70;;;;;;;10.98;81.21;101642.41;5043307;28;20449;-81
2022/04/18 08:56:19;;;;;;;0.60;0.60;;;;;;;10.96;73.14;101642.66;5039257;28;20417;-80
2022/04/18 08:58:53;;;;;;;0.70;0.70;;;;;;;10.72;95.42;101639.47;5036622;28;20423;-80
2022/04/18 09:01:28;;;;;;;0.70;0.70;;;;;;;10.87;73.84;101646.94;5046172;28;20421;-81
2022/04/18 09:04:12;;;;;;;0.60;0.60;;;;;;;10.68;73.31;101630.97;5050470;28;20447;-80
2022/04/18 09:06:49;;;;;;;0.70;0.70;;;;;;;10.89;76.77;101640.16;5040930;28;20432;-84
2022/04/18 09:09:28;;;;;;;0.70;0.70;;;;;;;11.20;86.40;101629.53;5034564;28;20427;-81
2022/04/18 09:12:19;;;;;;;0.70;0.70;;;;;;;11.21;83.38;101633.06;5039748;28;20430;-79
2022/04/18 09:15:32;;;;;;;0.70;0.70;;;;;;;11.18;66.68;101623.50;5045888;28;20421;-81
2022/04/18 09:18:08;;;;;;;0.75;0.70;;;;;;;11.18;64.76;101619.97;5063648;28;20432;-79
2022/04/18 09:21:05;;;;;;;0.70;0.70;;;;;;;11.41;62.54;101613.31;5046295;28;20429;-81
2022/04/18 09:23:40;;;;;;;0.70;0.70;;;;;;;11.28;75.34;101622.75;5047464;28;20472;-80
2022/04/18 09:26:25;;;;;;;0.70;0.70;;;;;;;11.60;57.38;101616.44;5042539;28;20435;-81
2022/04/18 09:29:03;;;;;;;0.70;0.70;;;;;;;11.68;58.47;101615.09;5040189;28;20426;-80
2022/04/18 09:31:39;;;;;;;0.70;0.70;;;;;;;11.60;52.29;101604.69;5041251;28;20433;-80
2022/04/18 09:34:21;;;;;;;0.80;0.80;;;;;;;11.49;57.32;101603.81;5027848;28;20437;-81
2022/04/18 09:37:09;;;;;;;0.70;0.70;;;;;;;11.47;52.31;101603.28;5045886;28;20419;-81
2022/04/18 09:39:43;;;;;;;0.80;0.80;;;;;;;11.49;53.93;101606.53;5032044;28;20957;-81
2022/04/18 09:42:17;;;;;;;0.80;0.80;;;;;;;11.46;56.19;101597.00;5053416;28;20417;-80
2022/04/18 09:45:10;;;;;;;0.73;0.70;;;;;;;11.68;58.79;101598.75;5051693;28;20405;-80
2022/04/18 09:47:54;;;;;;;0.80;0.70;;;;;;;11.90;53.18;101582.22;5051171;28;20961;-81
2022/04/18 09:53:24;;;;;;;0.70;0.70;;;;;;;11.64;48.60;101578.56;5051791;28;20912;-81
2022/04/18 09:55:54;;;;;;;0.60;0.60;;;;;;;11.88;50.93;101574.31;5051774;28;20421;-81
2022/04/18 09:58:23;;;;;;;0.77;0.70;;;;;;;12.15;61.53;101578.81;5051345;28;20421;-81
2022/04/18 10:00:57;;;;;;;1.20;0.70;;;;;;;12.25;59.25;101580.75;5051427;28;20437;-82
2022/04/18 10:03:27;;;;;;;0.60;0.60;;;;;;;12.07;53.62;101571.94;5051638;28;20417;-80
2022/04/18 10:06:01;;;;;;;0.60;0.60;;;;;;;12.37;66.06;101575.88;5045411;28;20434;-80
2022/04/18 10:08:35;;;;;;;0.80;0.70;;;;;;;12.54;59.37;101570.16;5043312;28;20433;-81
2022/04/18 10:11:11;;;;;;;1.50;0.80;;;;;;;12.28;56.98;101563.00;5051070;28;20433;-82
2022/04/18 10:13:44;;;;;;;0.70;0.60;;;;;;;12.36;55.90;101557.00;5047014;28;20428;-80
2022/04/18 10:16:14;;;;;;;0.70;0.70;;;;;;;12.50;61.24;101555.41;5049517;28;20436;-81
2022/04/18 10:18:51;;;;;;;0.63;0.63;;;;;;;12.41;57.99;101557.00;5038809;28;20442;-81
2022/04/18 10:21:29;;;;;;;0.90;0.60;;;;;;;12.46;57.72;101540.66;5043033;28;20428;-81
2022/04/18 10:24:29;;;;;;;0.60;0.60;;;;;;;12.95;69.41;101549.41;5034493;28;21145;-81
2022/04/18 10:27:46;;;;;;;0.60;0.60;;;;;;;12.92;63.51;101553.50;5034269;28;21262;-82
2022/04/18 10:30:16;;;;;;;0.40;0.40;;;;;;;12.89;54.92;101540.38;5030160;28;20440;-81
2022/04/18 10:32:50;;;;;;;0.52;0.50;;;;;;;13.07;58.12;101528.88;5035260;28;20402;-80
2022/04/18 10:35:25;;;;;;;0.60;0.60;;;;;;;13.02;55.42;101539.84;5029032;28;20421;-80
2022/04/18 10:38:03;;;;;;;0.50;0.50;;;;;;;12.96;67.69;101545.56;5027810;28;20456;-80
2022/04/18 10:40:40;;;;;;;0.77;0.60;;;;;;;13.24;55.97;101545.00;5021838;28;20425;-80
2022/04/18 10:43:10;;;;;;;0.50;0.50;;;;;;;12.89;48.16;101530.25;5027321;28;21242;-81
2022/04/18 10:45:43;;;;;;;0.60;0.60;;;;;;;12.93;52.76;101531.34;5025370;28;21003;-80
2022/04/18 10:48:13;;;;;;;0.55;0.50;;;;;;;12.86;50.37;101528.09;5023079;28;20428;-79
2022/04/18 10:50:50;;;;;;;0.50;0.50;;;;;;;12.90;52.34;101521.00;5025242;28;20441;-79
2022/04/18 10:53:37;;;;;;;0.50;0.50;;;;;;;12.99;61.37;101523.97;5025588;28;21322;-80
2022/04/18 10:56:12;;;;;;;0.68;0.50;;;;;;;12.86;51.34;101521.81;5032204;28;20856;-79
2022/04/18 10:58:49;;;;;;;0.50;0.50;;;;;;;12.82;53.95;101528.94;5026025;28;20433;-79
2022/04/18 11:01:22;;;;;;;0.60;0.60;;;;;;;12.74;52.47;101514.69;5027777;28;20982;-81
2022/04/18 11:03:58;;;;;;;0.65;0.65;;;;;;;12.84;55.99;101521.25;5028985;28;20440;-79
2022/04/18 11:06:49;;;;;;;0.50;0.50;;;;;;;12.81;53.97;101517.16;5027514;28;20433;-80
2022/04/18 11:09:24;;;;;;;0.68;0.68;;;;;;;12.81;50.72;101508.16;5027162;28;20418;-80
2022/04/18 11:12:05;;;;;;;0.60;0.60;;;;;;;12.84;54.41;101510.34;5024525;28;21083;-79
2022/04/18 11:14:48;;;;;;;0.65;0.60;;;;;;;12.90;60.97;101515.53;5021743;28;20440;-79
2022/04/18 11:17:30;;;;;;;0.60;0.60;;;;;;;13.12;54.15;101502.63;5023660;28;20444;-80
2022/04/18 11:20:25;;;;;;;0.70;0.60;;;;;;;13.19;52.17;101501.25;5028848;28;20426;-79
2022/04/18 11:23:22;;;;;;;0.60;0.60;;;;;;;13.42;52.69;101496.28;5030750;28;20433;-81
2022/04/18 11:25:58;;;;;;;0.70;0.60;;;;;;;13.16;48.84;101499.09;5021954;28;20964;-80
2022/04/18 11:28:34;;;;;;;0.60;0.60;;;;;;;13.33;51.78;101498.75;5026778;28;20401;-81
2022/04/18 11:31:09;;;;;;;0.55;0.55;;;;;;;13.70;56.44;101503.03;5030851;28;20428;-80
2022/04/18 11:33:44;;;;;;;0.50;0.50;;;;;;;13.56;49.97;101497.34;5029659;28;20437;-81
2022/04/18 11:36:17;;;;;;;0.70;0.60;;;;;;;13.34;48.58;101485.91;5021922;28;20425;-80
2022/04/18 11:39:04;;;;;;;0.50;0.50;;;;;;;13.67;55.38;101487.19;5025664;28;20433;-80
2022/04/18 11:41:37;;;;;;;0.50;0.50;;;;;;;13.57;47.25;101484.47;5033949;28;20428;-87
2022/04/18 11:44:06;;;;;;;0.50;0.50;;;;;;;13.74;55.17;101487.69;5027314;28;20877;-81
2022/04/18 11:46:39;;;;;;;0.60;0.60;;;;;;;13.54;49.37;101480.38;5026138;28;20436;-80
2022/04/18 11:49:12;;;;;;;0.60;0.60;;;;;;;13.46;50.47;101480.97;5026176;28;20433;-80
2022/04/18 11:51:46;;;;;;;0.80;0.70;;;;;;;13.31;50.78;101470.88;5025911;28;20427;-79
2022/04/18 11:54:21;;;;;;;0.60;0.60;;;;;;;13.47;50.78;101470.88;5032606;28;20428;-80
2022/04/18 11:56:57;;;;;;;0.55;0.55;;;;;;;13.64;50.75;101473.25;5032258;28;20438;-81
2022/04/18 11:59:29;;;;;;;0.60;0.60;;;;;;;13.32;48.16;101467.03;5031330;28;20422;-80
2022/04/18 12:07:42;;;;;;;0.80;0.70;;;;;;;13.95;53.79;101454.75;5029946;28;20417;-80
2022/04/18 12:10:24;;;;;;;0.75;0.63;;;;;;;14.02;49.74;101449.75;5026425;28;20460;-80
2022/04/18 12:12:53;;;;;;;0.60;0.60;;;;;;;13.94;52.08;101444.88;5024541;28;20428;-80
2022/04/18 12:15:28;;;;;;;0.50;0.50;;;;;;;14.21;50.24;101449.06;5024699;28;20758;-80
2022/04/18 12:18:09;;;;;;;0.68;0.52;;;;;;;13.98;49.14;101439.69;5024357;28;20437;-81
2022/04/18 12:20:43;;;;;;;0.50;0.50;;;;;;;13.99;44.69;101433.09;5025035;28;20427;-80
2022/04/18 12:23:20;;;;;;;0.50;0.50;;;;;;;14.14;47.42;101433.00;5023791;28;20486;-80
2022/04/18 12:25:54;;;;;;;0.60;0.52;;;;;;;14.14;48.26;101441.22;5022521;28;20455;-80
2022/04/18 12:28:24;;;;;;;0.60;0.50;;;;;;;14.25;47.91;101433.72;5027080;28;20429;-80
2022/04/18 12:30:58;;;;;;;0.50;0.50;;;;;;;14.32;56.50;101433.38;5027758;28;20451;-79
2022/04/18 12:33:31;;;;;;;0.47;0.47;;;;;;;14.46;48.73;101426.97;5034101;28;20429;-80
2022/04/18 12:36:05;;;;;;;0.53;0.53;;;;;;;14.09;48.20;101420.16;5025926;28;20428;-80
2022/04/18 12:38:35;;;;;;;0.50;0.50;;;;;;;14.11;47.86;101420.69;5027835;28;20429;-80
2022/04/18 12:41:10;;;;;;;0.50;0.50;;;;;;;14.33;52.02;101416.66;5028424;28;20428;-79
2022/04/18 12:43:43;;;;;;;0.70;0.65;;;;;;;14.42;47.04;101408.66;5026419;28;20429;-78